sensor_id;sensor_type;location;lat;lon;timestamp;pressure;altitude;pressure_sealevel;temperature;humidity
49297;BME280;35163;48.878;18.040;2022-12-17T00:01:37;98038.44;;;1.89;74.34
49297;BME280;35163;48.878;18.040;2022-12-17T00:04:22;98045.22;;;1.88;74.35
49297;BME280;35163;48.878;18.040;2022-12-17T00:07:07;98047.78;;;1.85;74.95
49297;BME280;35163;48.878;18.040;2022-12-17T00:09:52;98058.81;;;1.84;74.33
49297;BME280;35163;48.878;18.040;2022-12-17T00:12:37;98070.75;;;1.82;74.84
49297;BME280;35163;48.878;18.040;2022-12-17T00:15:22;98077.53;;;1.80;74.18
49297;BME280;35163;48.878;18.040;2022-12-17T00:18:08;98077.53;;;1.78;74.38
49297;BME280;35163;48.878;18.040;2022-12-17T00:20:55;98075.00;;;1.77;74.40
49297;BME280;35163;48.878;18.040;2022-12-17T00:23:41;98081.78;;;1.75;74.09
49297;BME280;35163;48.878;18.040;2022-12-17T00:26:26;98079.25;;;1.73;74.07
49297;BME280;35163;48.878;18.040;2022-12-17T00:29:11;98086.91;;;1.72;73.98
49297;BME280;35163;48.878;18.040;2022-12-17T00:31:57;98087.72;;;1.70;73.37
49297;BME280;35163;48.878;18.040;2022-12-17T00:34:42;98087.72;;;1.67;73.36
49297;BME280;35163;48.878;18.040;2022-12-17T00:37:28;98085.19;;;1.67;73.06
49297;BME280;35163;48.878;18.040;2022-12-17T00:40:14;98081.78;;;1.65;73.60
49297;BME280;35163;48.878;18.040;2022-12-17T00:45:45;98090.28;;;1.64;73.44
49297;BME280;35163;48.878;18.040;2022-12-17T00:48:30;98085.19;;;1.63;73.05
49297;BME280;35163;48.878;18.040;2022-12-17T00:51:17;98080.09;;;1.61;72.94
49297;BME280;35163;48.878;18.040;2022-12-17T00:54:02;98072.44;;;1.61;72.41
49297;BME280;35163;48.878;18.040;2022-12-17T00:56:47;98077.56;;;1.60;72.46
49297;BME280;35163;48.878;18.040;2022-12-17T00:59:32;98069.06;;;1.57;72.31
49297;BME280;35163;48.878;18.040;2022-12-17T01:02:18;98056.31;;;1.56;72.36
49297;BME280;35163;48.878;18.040;2022-12-17T01:05:04;98047.81;;;1.54;71.65
49297;BME280;35163;48.878;18.040;2022-12-17T01:07:49;98042.72;;;1.54;71.92
49297;BME280;35163;48.878;18.040;2022-12-17T01:10:35;98030.84;;;1.53;71.34
49297;BME280;35163;48.878;18.040;2022-12-17T01:13:21;98029.97;;;1.52;71.47
49297;BME280;35163;48.878;18.040;2022-12-17T01:16:09;98032.53;;;1.51;71.43
49297;BME280;35163;48.878;18.040;2022-12-17T01:18:56;98030.81;;;1.50;70.97
49297;BME280;35163;48.878;18.040;2022-12-17T01:21:43;98023.19;;;1.48;71.55
49297;BME280;35163;48.878;18.040;2022-12-17T01:24:29;98018.09;;;1.48;70.99
49297;BME280;35163;48.878;18.040;2022-12-17T01:27:14;98009.59;;;1.48;70.76
49297;BME280;35163;48.878;18.040;2022-12-17T01:30:03;98006.19;;;1.47;71.28
49297;BME280;35163;48.878;18.040;2022-12-17T01:32:48;98004.47;;;1.46;71.27
49297;BME280;35163;48.878;18.040;2022-12-17T01:35:33;98013.00;;;1.47;70.96
49297;BME280;35163;48.878;18.040;2022-12-17T01:38:18;98008.75;;;1.45;71.28
49297;BME280;35163;48.878;18.040;2022-12-17T01:41:04;98011.31;;;1.44;71.25
49297;BME280;35163;48.878;18.040;2022-12-17T01:43:49;98015.53;;;1.43;71.21
49297;BME280;35163;48.878;18.040;2022-12-17T01:46:36;98005.34;;;1.43;71.14
49297;BME280;35163;48.878;18.040;2022-12-17T01:49:25;97996.03;;;1.42;71.27
49297;BME280;35163;48.878;18.040;2022-12-17T01:52:13;97990.06;;;1.40;70.96
49297;BME280;35163;48.878;18.040;2022-12-17T01:55:02;97997.72;;;1.39;69.98
49297;BME280;35163;48.878;18.040;2022-12-17T01:57:48;98006.19;;;1.41;70.42
49297;BME280;35163;48.878;18.040;2022-12-17T02:00:33;98026.56;;;1.41;70.96
49297;BME280;35163;48.878;18.040;2022-12-17T02:03:18;98049.50;;;1.39;69.30
49297;BME280;35163;48.878;18.040;2022-12-17T02:06:24;98070.75;;;1.37;69.12
49297;BME280;35163;48.878;18.040;2022-12-17T02:09:12;98084.34;;;1.37;68.77
49297;BME280;35163;48.878;18.040;2022-12-17T02:12:09;98098.78;;;1.38;69.40
49297;BME280;35163;48.878;18.040;2022-12-17T02:15:01;98117.47;;;1.37;69.53
49297;BME280;35163;48.878;18.040;2022-12-17T02:17:52;98137.84;;;1.39;69.12
49297;BME280;35163;48.878;18.040;2022-12-17T02:26:46;98180.31;;;1.41;68.59
49297;BME280;35163;48.878;18.040;2022-12-17T02:29:38;98199.00;;;1.43;68.30
49297;BME280;35163;48.878;18.040;2022-12-17T02:32:26;98193.91;;;1.43;69.02
49297;BME280;35163;48.878;18.040;2022-12-17T02:35:15;98179.50;;;1.44;69.50
49297;BME280;35163;48.878;18.040;2022-12-17T02:38:25;98173.53;;;1.43;68.90
49297;BME280;35163;48.878;18.040;2022-12-17T02:41:27;98173.53;;;1.42;68.50
49297;BME280;35163;48.878;18.040;2022-12-17T02:44:16;98170.13;;;1.41;68.67
49297;BME280;35163;48.878;18.040;2022-12-17T02:47:05;98180.31;;;1.41;68.39
49297;BME280;35163;48.878;18.040;2022-12-17T02:49:52;98187.09;;;1.41;68.10
49297;BME280;35163;48.878;18.040;2022-12-17T02:52:42;98182.00;;;1.41;67.50
49297;BME280;35163;48.878;18.040;2022-12-17T02:55:29;98159.06;;;1.39;68.11
49297;BME280;35163;48.878;18.040;2022-12-17T02:58:14;98148.88;;;1.38;67.77
49297;BME280;35163;48.878;18.040;2022-12-17T03:01:00;98143.78;;;1.38;67.39
49297;BME280;35163;48.878;18.040;2022-12-17T03:03:45;98152.28;;;1.32;67.18
49297;BME280;35163;48.878;18.040;2022-12-17T03:06:30;98145.47;;;1.29;66.63
49297;BME280;35163;48.878;18.040;2022-12-17T03:09:16;98142.94;;;1.28;66.88
49297;BME280;35163;48.878;18.040;2022-12-17T03:12:01;98128.47;;;1.22;66.33
49297;BME280;35163;48.878;18.040;2022-12-17T03:14:47;98127.66;;;1.21;65.84
49297;BME280;35163;48.878;18.040;2022-12-17T03:17:32;98132.75;;;1.21;66.12
49297;BME280;35163;48.878;18.040;2022-12-17T03:20:17;98138.66;;;1.20;66.31
49297;BME280;35163;48.878;18.040;2022-12-17T03:23:05;98166.69;;;1.19;66.40
49297;BME280;35163;48.878;18.040;2022-12-17T03:25:50;98176.88;;;1.19;66.84
49297;BME280;35163;48.878;18.040;2022-12-17T03:28:35;98187.06;;;1.20;66.99
49297;BME280;35163;48.878;18.040;2022-12-17T03:31:21;98181.13;;;1.18;66.78
49297;BME280;35163;48.878;18.040;2022-12-17T03:34:06;98180.28;;;1.19;67.47
49297;BME280;35163;48.878;18.040;2022-12-17T03:36:51;98167.53;;;1.18;67.01
49297;BME280;35163;48.878;18.040;2022-12-17T03:39:36;98174.31;;;1.19;67.31
49297;BME280;35163;48.878;18.040;2022-12-17T03:42:21;98175.19;;;1.19;67.68
49297;BME280;35163;48.878;18.040;2022-12-17T03:45:07;98182.81;;;1.19;67.71
49297;BME280;35163;48.878;18.040;2022-12-17T03:48:12;98200.66;;;1.19;67.26
49297;BME280;35163;48.878;18.040;2022-12-17T03:50:57;98197.25;;;1.17;67.19
49297;BME280;35163;48.878;18.040;2022-12-17T03:53:44;98196.38;;;1.15;67.11
49297;BME280;35163;48.878;18.040;2022-12-17T03:56:29;98185.38;;;1.16;65.99
49297;BME280;35163;48.878;18.040;2022-12-17T03:59:15;98173.47;;;1.15;66.17
49297;BME280;35163;48.878;18.040;2022-12-17T04:02:00;98156.50;;;1.14;65.72
49297;BME280;35163;48.878;18.040;2022-12-17T04:04:45;98144.63;;;1.12;65.87
49297;BME280;35163;48.878;18.040;2022-12-17T04:07:30;98135.25;;;1.09;65.67
49297;BME280;35163;48.878;18.040;2022-12-17T04:10:15;98146.25;;;1.05;65.31
49297;BME280;35163;48.878;18.040;2022-12-17T04:13:01;98195.50;;;1.07;65.93
49297;BME280;35163;48.878;18.040;2022-12-17T04:15:46;98246.44;;;1.07;65.62
49297;BME280;35163;48.878;18.040;2022-12-17T04:18:31;98256.63;;;1.07;66.03
49297;BME280;35163;48.878;18.040;2022-12-17T04:21:17;98263.44;;;1.08;66.02
49297;BME280;35163;48.878;18.040;2022-12-17T04:24:02;98251.53;;;1.07;65.71
49297;BME280;35163;48.878;18.040;2022-12-17T04:26:47;98255.81;;;1.08;65.70
49297;BME280;35163;48.878;18.040;2022-12-17T04:29:33;98252.41;;;1.06;66.26
49297;BME280;35163;48.878;18.040;2022-12-17T04:32:18;98252.41;;;1.04;65.03
49297;BME280;35163;48.878;18.040;2022-12-17T04:35:03;98251.53;;;1.05;65.51
49297;BME280;35163;48.878;18.040;2022-12-17T04:37:48;98237.13;;;1.03;65.11
49297;BME280;35163;48.878;18.040;2022-12-17T04:40:34;98227.75;;;1.02;65.39
49297;BME280;35163;48.878;18.040;2022-12-17T04:43:19;98225.19;;;1.00;65.45
49297;BME280;35163;48.878;18.040;2022-12-17T04:46:04;98233.69;;;0.96;64.44
49297;BME280;35163;48.878;18.040;2022-12-17T04:48:49;98237.06;;;0.95;65.42
49297;BME280;35163;48.878;18.040;2022-12-17T04:51:34;98230.28;;;0.92;65.22
49297;BME280;35163;48.878;18.040;2022-12-17T04:54:19;98208.19;;;0.88;64.36
49297;BME280;35163;48.878;18.040;2022-12-17T04:57:04;98214.94;;;0.88;64.33
49297;BME280;35163;48.878;18.040;2022-12-17T04:59:49;98234.50;;;0.87;65.08
49297;BME280;35163;48.878;18.040;2022-12-17T05:02:34;98230.22;;;0.84;64.96
49297;BME280;35163;48.878;18.040;2022-12-17T05:05:19;98231.94;;;0.86;65.07
49297;BME280;35163;48.878;18.040;2022-12-17T05:08:05;98245.50;;;0.86;65.28
49297;BME280;35163;48.878;18.040;2022-12-17T05:10:50;98253.13;;;0.84;65.45
49297;BME280;35163;48.878;18.040;2022-12-17T05:13:35;98259.94;;;0.84;64.88
49297;BME280;35163;48.878;18.040;2022-12-17T05:16:20;98271.81;;;0.85;65.32
49297;BME280;35163;48.878;18.040;2022-12-17T05:19:05;98282.00;;;0.85;65.63
49297;BME280;35163;48.878;18.040;2022-12-17T05:21:51;98293.03;;;0.86;65.26
49297;BME280;35163;48.878;18.040;2022-12-17T05:24:36;98288.78;;;0.84;66.14
49297;BME280;35163;48.878;18.040;2022-12-17T05:27:21;98292.19;;;0.83;66.15
49297;BME280;35163;48.878;18.040;2022-12-17T05:30:06;98310.84;;;0.84;66.14
49297;BME280;35163;48.878;18.040;2022-12-17T05:32:59;98328.69;;;0.82;65.53
49297;BME280;35163;48.878;18.040;2022-12-17T05:35:45;98336.31;;;0.84;65.08
49297;BME280;35163;48.878;18.040;2022-12-17T05:38:30;98333.78;;;0.82;65.51
49297;BME280;35163;48.878;18.040;2022-12-17T05:41:15;98338.84;;;0.82;64.97
49297;BME280;35163;48.878;18.040;2022-12-17T05:44:05;98349.88;;;0.81;65.86
49297;BME280;35163;48.878;18.040;2022-12-17T05:46:50;98355.81;;;0.80;65.27
49297;BME280;35163;48.878;18.040;2022-12-17T05:49:35;98345.56;;;0.76;64.69
49297;BME280;35163;48.878;18.040;2022-12-17T05:52:21;98352.38;;;0.75;65.46
49297;BME280;35163;48.878;18.040;2022-12-17T05:55:07;98365.09;;;0.74;65.56
49297;BME280;35163;48.878;18.040;2022-12-17T05:58:07;98368.47;;;0.72;66.28
49297;BME280;35163;48.878;18.040;2022-12-17T06:00:58;98376.97;;;0.73;65.72
49297;BME280;35163;48.878;18.040;2022-12-17T06:03:45;98386.28;;;0.71;66.01
49297;BME280;35163;48.878;18.040;2022-12-17T06:06:31;98396.47;;;0.71;66.13
49297;BME280;35163;48.878;18.040;2022-12-17T06:09:16;98402.41;;;0.70;65.63
49297;BME280;35163;48.878;18.040;2022-12-17T06:12:01;98410.88;;;0.70;65.56
49297;BME280;35163;48.878;18.040;2022-12-17T06:14:46;98410.84;;;0.69;66.13
49297;BME280;35163;48.878;18.040;2022-12-17T06:17:32;98410.03;;;0.68;65.11
49297;BME280;35163;48.878;18.040;2022-12-17T06:20:42;98421.00;;;0.64;65.90
49297;BME280;35163;48.878;18.040;2022-12-17T06:23:27;98424.41;;;0.63;65.82
49297;BME280;35163;48.878;18.040;2022-12-17T06:26:12;98417.59;;;0.62;66.16
49297;BME280;35163;48.878;18.040;2022-12-17T06:28:57;98425.22;;;0.62;66.40
49297;BME280;35163;48.878;18.040;2022-12-17T06:31:42;98424.38;;;0.60;66.26
49297;BME280;35163;48.878;18.040;2022-12-17T06:34:27;98419.28;;;0.60;66.44
49297;BME280;35163;48.878;18.040;2022-12-17T06:37:12;98428.59;;;0.58;66.26
49297;BME280;35163;48.878;18.040;2022-12-17T06:39:57;98437.06;;;0.58;66.04
49297;BME280;35163;48.878;18.040;2022-12-17T06:42:51;98442.16;;;0.58;66.33
49297;BME280;35163;48.878;18.040;2022-12-17T06:45:37;98455.75;;;0.59;66.12
49297;BME280;35163;48.878;18.040;2022-12-17T06:48:22;98459.13;;;0.58;66.81
49297;BME280;35163;48.878;18.040;2022-12-17T06:51:07;98458.25;;;0.56;66.50
49297;BME280;35163;48.878;18.040;2022-12-17T06:53:52;98458.25;;;0.54;65.99
49297;BME280;35163;48.878;18.040;2022-12-17T06:56:38;98465.03;;;0.55;65.76
49297;BME280;35163;48.878;18.040;2022-12-17T06:59:23;98461.66;;;0.55;65.60
49297;BME280;35163;48.878;18.040;2022-12-17T07:02:11;98470.13;;;0.57;65.97
49297;BME280;35163;48.878;18.040;2022-12-17T07:04:57;98472.66;;;0.55;66.31
49297;BME280;35163;48.878;18.040;2022-12-17T07:07:42;98473.53;;;0.57;65.22
49297;BME280;35163;48.878;18.040;2022-12-17T07:10:27;98474.41;;;0.58;65.57
49297;BME280;35163;48.878;18.040;2022-12-17T07:13:12;98476.97;;;0.59;65.37
49297;BME280;35163;48.878;18.040;2022-12-17T07:15:57;98493.94;;;0.62;65.25
49297;BME280;35163;48.878;18.040;2022-12-17T07:18:43;98499.09;;;0.65;66.32
49297;BME280;35163;48.878;18.040;2022-12-17T07:21:28;98512.63;;;0.64;65.93
49297;BME280;35163;48.878;18.040;2022-12-17T07:24:13;98510.97;;;0.66;65.50
49297;BME280;35163;48.878;18.040;2022-12-17T07:26:58;98513.53;;;0.69;64.83
49297;BME280;35163;48.878;18.040;2022-12-17T07:29:43;98516.94;;;0.70;64.87
49297;BME280;35163;48.878;18.040;2022-12-17T07:32:29;98519.50;;;0.71;64.83
49297;BME280;35163;48.878;18.040;2022-12-17T07:35:14;98533.09;;;0.74;64.57
49297;BME280;35163;48.878;18.040;2022-12-17T07:38:01;98534.00;;;0.79;64.31
49297;BME280;35163;48.878;18.040;2022-12-17T07:40:47;98529.75;;;0.79;64.33
49297;BME280;35163;48.878;18.040;2022-12-17T07:43:32;98526.34;;;0.77;63.97
49297;BME280;35163;48.878;18.040;2022-12-17T07:46:19;98522.94;;;0.77;64.23
49297;BME280;35163;48.878;18.040;2022-12-17T07:49:04;98525.53;;;0.80;64.10
49297;BME280;35163;48.878;18.040;2022-12-17T07:51:51;98534.03;;;0.82;64.52
49297;BME280;35163;48.878;18.040;2022-12-17T07:54:37;98537.44;;;0.82;64.02
49297;BME280;35163;48.878;18.040;2022-12-17T07:57:22;98546.78;;;0.87;63.86
49297;BME280;35163;48.878;18.040;2022-12-17T08:00:07;98568.91;;;0.91;63.55
49297;BME280;35163;48.878;18.040;2022-12-17T08:02:59;98572.31;;;0.91;63.11
49297;BME280;35163;48.878;18.040;2022-12-17T08:05:45;98578.28;;;0.95;63.58
49297;BME280;35163;48.878;18.040;2022-12-17T08:08:30;98565.59;;;1.00;63.52
49297;BME280;35163;48.878;18.040;2022-12-17T08:11:15;98572.41;;;1.02;63.27
49297;BME280;35163;48.878;18.040;2022-12-17T08:14:01;98594.56;;;1.08;64.26
49297;BME280;35163;48.878;18.040;2022-12-17T08:16:46;98604.69;;;1.05;63.75
49297;BME280;35163;48.878;18.040;2022-12-17T08:19:31;98603.88;;;1.06;63.04
49297;BME280;35163;48.878;18.040;2022-12-17T08:22:16;98607.28;;;1.06;62.49
49297;BME280;35163;48.878;18.040;2022-12-17T08:25:02;98609.84;;;1.08;62.09
49297;BME280;35163;48.878;18.040;2022-12-17T08:27:47;98614.94;;;1.08;62.52
49297;BME280;35163;48.878;18.040;2022-12-17T08:30:41;98627.69;;;1.09;62.21
49297;BME280;35163;48.878;18.040;2022-12-17T08:33:29;98629.38;;;1.09;62.38
49297;BME280;35163;48.878;18.040;2022-12-17T08:36:15;98632.78;;;1.11;62.02
49297;BME280;35163;48.878;18.040;2022-12-17T08:39:00;98628.56;;;1.13;61.51
49297;BME280;35163;48.878;18.040;2022-12-17T08:41:45;98633.66;;;1.13;61.29
49297;BME280;35163;48.878;18.040;2022-12-17T08:44:30;98652.31;;;1.14;61.51
49297;BME280;35163;48.878;18.040;2022-12-17T08:47:15;98654.03;;;1.13;61.82
49297;BME280;35163;48.878;18.040;2022-12-17T08:50:01;98649.75;;;1.09;61.56
49297;BME280;35163;48.878;18.040;2022-12-17T08:52:47;98685.41;;;1.11;61.72
49297;BME280;35163;48.878;18.040;2022-12-17T08:55:32;98682.00;;;1.10;61.62
49297;BME280;35163;48.878;18.040;2022-12-17T08:58:17;98665.88;;;1.08;61.32
49297;BME280;35163;48.878;18.040;2022-12-17T09:01:02;98672.69;;;1.12;61.30
49297;BME280;35163;48.878;18.040;2022-12-17T09:03:55;98667.59;;;1.12;61.52
49297;BME280;35163;48.878;18.040;2022-12-17T09:06:40;98671.88;;;1.12;61.66
49297;BME280;35163;48.878;18.040;2022-12-17T09:09:25;98680.38;;;1.17;60.96
49297;BME280;35163;48.878;18.040;2022-12-17T09:12:11;98647.31;;;1.18;61.39
49297;BME280;35163;48.878;18.040;2022-12-17T09:14:56;98629.50;;;1.21;60.86
49297;BME280;35163;48.878;18.040;2022-12-17T09:17:41;98643.97;;;1.26;62.11
49297;BME280;35163;48.878;18.040;2022-12-17T09:20:26;98659.28;;;1.29;61.77
49297;BME280;35163;48.878;18.040;2022-12-17T09:23:15;98660.16;;;1.31;61.94
49297;BME280;35163;48.878;18.040;2022-12-17T09:26:01;98672.91;;;1.34;61.83
49297;BME280;35163;48.878;18.040;2022-12-17T09:28:46;98689.09;;;1.38;61.41
49297;BME280;35163;48.878;18.040;2022-12-17T09:31:32;98699.28;;;1.39;61.59
49297;BME280;35163;48.878;18.040;2022-12-17T09:34:17;98701.84;;;1.39;61.06
49297;BME280;35163;48.878;18.040;2022-12-17T09:37:03;98707.81;;;1.41;61.42
49297;BME280;35163;48.878;18.040;2022-12-17T09:39:48;98718.84;;;1.39;61.26
49297;BME280;35163;48.878;18.040;2022-12-17T09:42:44;98706.13;;;1.42;61.55
49297;BME280;35163;48.878;18.040;2022-12-17T09:45:38;98701.84;;;1.41;60.61
49297;BME280;35163;48.878;18.040;2022-12-17T09:48:37;98725.66;;;1.43;61.32
49297;BME280;35163;48.878;18.040;2022-12-17T09:51:27;98730.78;;;1.44;61.71
49297;BME280;35163;48.878;18.040;2022-12-17T09:54:31;98729.13;;;1.47;61.08
49297;BME280;35163;48.878;18.040;2022-12-17T09:57:28;98716.38;;;1.47;60.84
49297;BME280;35163;48.878;18.040;2022-12-17T10:00:21;98724.88;;;1.47;60.97
49297;BME280;35163;48.878;18.040;2022-12-17T10:03:15;98730.84;;;1.48;61.64
49297;BME280;35163;48.878;18.040;2022-12-17T10:06:09;98719.78;;;1.47;60.84
49297;BME280;35163;48.878;18.040;2022-12-17T10:08:57;98712.13;;;1.45;60.84
49297;BME280;35163;48.878;18.040;2022-12-17T10:11:43;98722.31;;;1.45;61.56
49297;BME280;35163;48.878;18.040;2022-12-17T10:14:28;98732.47;;;1.42;60.59
49297;BME280;35163;48.878;18.040;2022-12-17T10:17:22;98734.19;;;1.43;61.11
49297;BME280;35163;48.878;18.040;2022-12-17T10:20:41;98739.28;;;1.43;60.85
49297;BME280;35163;48.878;18.040;2022-12-17T10:23:32;98735.84;;;1.40;61.03
49297;BME280;35163;48.878;18.040;2022-12-17T10:26:22;98740.94;;;1.40;60.90
49297;BME280;35163;48.878;18.040;2022-12-17T10:29:15;98744.31;;;1.37;60.30
49297;BME280;35163;48.878;18.040;2022-12-17T10:35:05;98739.22;;;1.36;61.13
49297;BME280;35163;48.878;18.040;2022-12-17T10:37:51;98735.81;;;1.38;60.21
49297;BME280;35163;48.878;18.040;2022-12-17T10:40:36;98733.28;;;1.38;60.44
49297;BME280;35163;48.878;18.040;2022-12-17T10:46:21;98758.78;;;1.40;60.30
49297;BME280;35163;48.878;18.040;2022-12-17T10:52:27;98781.66;;;1.35;59.76
49297;BME280;35163;48.878;18.040;2022-12-17T10:55:26;98784.22;;;1.35;60.60
49297;BME280;35163;48.878;18.040;2022-12-17T10:58:18;98789.28;;;1.33;60.20
49297;BME280;35163;48.878;18.040;2022-12-17T11:01:05;98795.22;;;1.34;60.10
49297;BME280;35163;48.878;18.040;2022-12-17T11:03:52;98791.84;;;1.33;60.64
49297;BME280;35163;48.878;18.040;2022-12-17T11:06:42;98793.50;;;1.30;59.80
49297;BME280;35163;48.878;18.040;2022-12-17T11:09:35;98803.69;;;1.30;60.18
49297;BME280;35163;48.878;18.040;2022-12-17T11:12:29;98807.06;;;1.29;61.48
49297;BME280;35163;48.878;18.040;2022-12-17T11:18:05;98789.19;;;1.26;61.02
49297;BME280;35163;48.878;18.040;2022-12-17T11:21:12;98796.78;;;1.21;60.72
49297;BME280;35163;48.878;18.040;2022-12-17T11:24:00;98807.81;;;1.20;61.37
49297;BME280;35163;48.878;18.040;2022-12-17T11:26:50;98814.63;;;1.21;61.59
49297;BME280;35163;48.878;18.040;2022-12-17T11:29:37;98826.50;;;1.20;60.94
49297;BME280;35163;48.878;18.040;2022-12-17T11:38:31;98829.78;;;1.12;61.23
49297;BME280;35163;48.878;18.040;2022-12-17T11:44:46;98837.34;;;1.07;61.88
49297;BME280;35163;48.878;18.040;2022-12-17T11:47:57;98828.00;;;1.06;61.34
49297;BME280;35163;48.878;18.040;2022-12-17T11:50:58;98841.63;;;1.06;61.23
49297;BME280;35163;48.878;18.040;2022-12-17T12:00:00;98860.28;;;1.07;61.79
49297;BME280;35163;48.878;18.040;2022-12-17T12:02:59;98873.84;;;1.06;62.49
49297;BME280;35163;48.878;18.040;2022-12-17T12:05:52;98876.41;;;1.06;62.51
49297;BME280;35163;48.878;18.040;2022-12-17T12:15:20;98879.75;;;1.05;63.14
49297;BME280;35163;48.878;18.040;2022-12-17T12:24:20;98902.59;;;0.99;62.85
49297;BME280;35163;48.878;18.040;2022-12-17T12:30:23;98909.41;;;1.00;64.06
49297;BME280;35163;48.878;18.040;2022-12-17T12:36:01;98922.13;;;1.00;63.12
49297;BME280;35163;48.878;18.040;2022-12-17T12:38:52;98934.84;;;0.98;63.56
49297;BME280;35163;48.878;18.040;2022-12-17T12:41:46;98932.28;;;0.96;63.74
49297;BME280;35163;48.878;18.040;2022-12-17T12:48:06;98934.03;;;0.99;63.58
49297;BME280;35163;48.878;18.040;2022-12-17T12:51:10;98936.59;;;0.99;64.26
49297;BME280;35163;48.878;18.040;2022-12-17T12:54:01;98938.25;;;0.97;62.95
49297;BME280;35163;48.878;18.040;2022-12-17T12:56:46;98931.44;;;0.96;63.64
49297;BME280;35163;48.878;18.040;2022-12-17T12:59:35;98934.03;;;0.98;64.69
49297;BME280;35163;48.878;18.040;2022-12-17T13:02:23;98941.63;;;0.96;64.40
49297;BME280;35163;48.878;18.040;2022-12-17T13:10:30;98963.66;;;0.92;64.97
49297;BME280;35163;48.878;18.040;2022-12-17T13:13:09;98970.47;;;0.95;64.53
49297;BME280;35163;48.878;18.040;2022-12-17T13:15:41;98978.09;;;0.93;64.69
49297;BME280;35163;48.878;18.040;2022-12-17T13:20:42;98979.81;;;0.94;65.41
49297;BME280;35163;48.878;18.040;2022-12-17T13:26:46;98984.03;;;0.94;65.03
49297;BME280;35163;48.878;18.040;2022-12-17T13:34:54;99000.19;;;0.94;65.26
49297;BME280;35163;48.878;18.040;2022-12-17T13:43:26;99010.38;;;0.94;65.54
49297;BME280;35163;48.878;18.040;2022-12-17T13:45:56;99018.88;;;0.96;65.77
49297;BME280;35163;48.878;18.040;2022-12-17T13:48:25;99028.28;;;0.99;66.51
49297;BME280;35163;48.878;18.040;2022-12-17T13:51:00;99032.47;;;0.97;65.58
49297;BME280;35163;48.878;18.040;2022-12-17T13:53:28;99035.00;;;0.95;65.83
49297;BME280;35163;48.878;18.040;2022-12-17T13:55:57;99028.22;;;0.96;65.47
49297;BME280;35163;48.878;18.040;2022-12-17T13:58:32;99029.06;;;0.96;65.48
49297;BME280;35163;48.878;18.040;2022-12-17T14:01:10;99029.06;;;0.96;66.16
49297;BME280;35163;48.878;18.040;2022-12-17T14:03:37;99030.78;;;0.96;65.33
49297;BME280;35163;48.878;18.040;2022-12-17T14:06:26;99038.41;;;0.96;65.49
49297;BME280;35163;48.878;18.040;2022-12-17T14:08:55;99036.66;;;0.93;65.65
49297;BME280;35163;48.878;18.040;2022-12-17T14:11:22;99039.22;;;0.95;65.71
49297;BME280;35163;48.878;18.040;2022-12-17T14:14:23;99035.84;;;0.94;66.03
49297;BME280;35163;48.878;18.040;2022-12-17T14:16:53;99050.25;;;0.94;66.13
49297;BME280;35163;48.878;18.040;2022-12-17T14:19:21;99056.22;;;0.94;65.55
49297;BME280;35163;48.878;18.040;2022-12-17T14:21:48;99069.75;;;0.93;64.64
49297;BME280;35163;48.878;18.040;2022-12-17T14:24:18;99073.94;;;0.90;65.88
49297;BME280;35163;48.878;18.040;2022-12-17T14:26:50;99072.25;;;0.89;65.18
49297;BME280;35163;48.878;18.040;2022-12-17T14:29:26;99079.00;;;0.88;64.56
49297;BME280;35163;48.878;18.040;2022-12-17T14:31:58;99087.50;;;0.87;65.63
49297;BME280;35163;48.878;18.040;2022-12-17T14:34:26;99071.31;;;0.85;65.93
49297;BME280;35163;48.878;18.040;2022-12-17T14:36:55;99083.13;;;0.81;65.35
49297;BME280;35163;48.878;18.040;2022-12-17T14:39:32;99088.28;;;0.84;65.82
49297;BME280;35163;48.878;18.040;2022-12-17T14:42:08;99087.41;;;0.82;65.43
49297;BME280;35163;48.878;18.040;2022-12-17T14:44:55;99092.53;;;0.84;65.09
49297;BME280;35163;48.878;18.040;2022-12-17T14:47:26;99093.41;;;0.86;65.74
49297;BME280;35163;48.878;18.040;2022-12-17T14:52:37;99096.84;;;0.88;64.72
49297;BME280;35163;48.878;18.040;2022-12-17T14:57:53;99103.59;;;0.88;65.99
49297;BME280;35163;48.878;18.040;2022-12-17T15:00:31;99107.88;;;0.87;64.93
49297;BME280;35163;48.878;18.040;2022-12-17T15:02:58;99117.22;;;0.88;64.97
49297;BME280;35163;48.878;18.040;2022-12-17T15:05:25;99124.06;;;0.91;64.97
49297;BME280;35163;48.878;18.040;2022-12-17T15:07:51;99125.75;;;0.90;65.09
49297;BME280;35163;48.878;18.040;2022-12-17T15:10:19;99128.34;;;0.93;64.69
49297;BME280;35163;48.878;18.040;2022-12-17T15:12:46;99134.28;;;0.92;65.19
49297;BME280;35163;48.878;18.040;2022-12-17T15:15:15;99138.53;;;0.93;64.04
49297;BME280;35163;48.878;18.040;2022-12-17T15:17:42;99132.63;;;0.94;64.74
49297;BME280;35163;48.878;18.040;2022-12-17T15:20:16;99152.09;;;0.92;64.65
49297;BME280;35163;48.878;18.040;2022-12-17T15:22:43;99159.81;;;0.95;65.02
49297;BME280;35163;48.878;18.040;2022-12-17T15:25:15;99166.63;;;0.98;64.06
49297;BME280;35163;48.878;18.040;2022-12-17T15:27:42;99185.31;;;0.99;64.20
49297;BME280;35163;48.878;18.040;2022-12-17T15:30:13;99189.56;;;1.00;64.35
49297;BME280;35163;48.878;18.040;2022-12-17T15:32:41;99194.66;;;1.00;64.44
49297;BME280;35163;48.878;18.040;2022-12-17T15:35:09;99195.56;;;1.02;64.85
49297;BME280;35163;48.878;18.040;2022-12-17T15:37:36;99209.19;;;1.04;64.74
49297;BME280;35163;48.878;18.040;2022-12-17T15:40:04;99196.47;;;1.04;64.46
49297;BME280;35163;48.878;18.040;2022-12-17T15:42:31;99202.44;;;1.06;64.83
49297;BME280;35163;48.878;18.040;2022-12-17T15:45:16;99193.97;;;1.07;64.51
49297;BME280;35163;48.878;18.040;2022-12-17T15:47:43;99200.81;;;1.08;64.95
49297;BME280;35163;48.878;18.040;2022-12-17T15:50:10;99205.06;;;1.09;65.02
49297;BME280;35163;48.878;18.040;2022-12-17T15:52:37;99202.53;;;1.11;64.14
49297;BME280;35163;48.878;18.040;2022-12-17T15:55:03;99211.06;;;1.13;64.42
49297;BME280;35163;48.878;18.040;2022-12-17T15:57:30;99211.94;;;1.13;64.15
49297;BME280;35163;48.878;18.040;2022-12-17T15:59:57;99216.19;;;1.14;64.38